createdAt,value
2022-10-17T12:08:23.151Z,100483.56
2022-10-17T12:08:54.635Z,100486.81
2022-10-17T12:09:25.999Z,100483.25
2022-10-17T12:09:57.478Z,100476.69
2022-10-17T12:10:28.896Z,100482.16
2022-10-17T12:11:01.103Z,100479.97
2022-10-17T12:11:33.043Z,100469.56
2022-10-17T12:12:04.526Z,100469.56
2022-10-17T12:12:36.039Z,100469.28
2022-10-17T12:13:07.524Z,100467.66
2022-10-17T12:13:38.951Z,100470.09
2022-10-17T12:14:10.346Z,100470.09
2022-10-17T12:14:41.798Z,100467.34
2022-10-17T12:15:13.189Z,100471.75
2022-10-17T12:15:46.666Z,100468.47
2022-10-17T12:16:18.223Z,100466.53
2022-10-17T12:16:49.694Z,100461.06
2022-10-17T12:17:21.112Z,100460.25
2022-10-17T12:17:52.545Z,100465.44
2022-10-17T12:18:24.006Z,100461.88
2022-10-17T12:18:55.432Z,100458.06
2022-10-17T12:19:26.923Z,100460.50
2022-10-17T12:19:58.398Z,100462.97
2022-10-17T12:20:29.867Z,100462.97
2022-10-17T12:21:01.257Z,100465.19
2022-10-17T12:21:32.976Z,100459.69
2022-10-17T12:22:04.436Z,100464.63
2022-10-17T12:22:35.913Z,100467.34
2022-10-17T12:23:07.314Z,100467.34
2022-10-17T12:23:38.758Z,100465.44
2022-10-17T12:24:10.171Z,100466.00
2022-10-17T12:24:41.596Z,100471.47
2022-10-17T12:25:13.044Z,100465.19
2022-10-17T12:25:44.476Z,100473.38
2022-10-17T12:26:15.867Z,100470.34
2022-10-17T12:26:47.362Z,100475.00
2022-10-17T12:27:18.769Z,100465.19
2022-10-17T12:27:50.196Z,100465.19
2022-10-17T12:28:21.682Z,100468.19
2022-10-17T12:28:53.275Z,100467.91
2022-10-17T12:29:24.794Z,100465.19
2022-10-17T12:29:56.278Z,100467.09
2022-10-17T12:30:27.739Z,100461.63
2022-10-17T12:30:59.119Z,100460.81
2022-10-17T12:31:34.106Z,100462.16
2022-10-17T12:32:05.787Z,100466.00
2022-10-17T12:33:03.891Z,100465.19
2022-10-17T12:33:28.723Z,100477.75
2022-10-17T12:34:00.097Z,100469.84
2022-10-17T12:34:31.506Z,100472.28
2022-10-17T12:35:02.905Z,100472.28
2022-10-17T12:35:34.321Z,100472.28
2022-10-17T12:36:05.783Z,100466.81
2022-10-17T12:36:37.206Z,100467.09
2022-10-17T12:37:08.662Z,100470.66
2022-10-17T12:37:40.108Z,100473.38
2022-10-17T12:38:11.538Z,100468.19
2022-10-17T12:38:45.705Z,100473.38
2022-10-17T12:39:19.193Z,100467.91
2022-10-17T12:39:50.629Z,100468.72
2022-10-17T12:40:22.036Z,100469.53
2022-10-17T12:40:53.472Z,100470.66
2022-10-17T12:41:24.855Z,100469.53
2022-10-17T12:41:56.217Z,100468.72
2022-10-17T12:42:27.921Z,100470.34
2022-10-17T12:42:59.591Z,100472.28
2022-10-17T12:43:31.043Z,100473.09
2022-10-17T12:44:02.570Z,100475.84
2022-10-17T12:44:34.986Z,100478.56
2022-10-17T12:45:06.491Z,100479.91
2022-10-17T12:45:37.912Z,100485.38
2022-10-17T12:46:09.338Z,100485.09
2022-10-17T12:46:40.764Z,100479.38
2022-10-17T12:47:12.320Z,100481.31
2022-10-17T12:47:43.928Z,100481.00
2022-10-17T12:48:15.536Z,100484.84
2022-10-17T12:48:46.943Z,100480.19
2022-10-17T12:49:18.461Z,100483.22
2022-10-17T12:49:53.106Z,100485.16
2022-10-17T12:50:27.298Z,100481.88
2022-10-17T12:51:17.724Z,100488.69
2022-10-17T12:51:50.050Z,100484.03
2022-10-17T12:52:21.456Z,100486.78
2022-10-17T12:53:24.212Z,100485.97
2022-10-17T12:53:55.663Z,100488.69
2022-10-17T12:54:27.066Z,100476.13
2022-10-17T12:55:11.454Z,100477.75
2022-10-17T12:55:43.858Z,100476.66
2022-10-17T12:56:15.227Z,100480.78
2022-10-17T12:56:46.686Z,100480.78
2022-10-17T12:57:18.134Z,100480.78
2022-10-17T12:57:49.525Z,100477.75
2022-10-17T12:58:21.013Z,100483.22
2022-10-17T12:58:52.444Z,100487.59
2022-10-17T12:59:23.846Z,100491.16
2022-10-17T12:59:57.983Z,100487.88
2022-10-17T13:00:30.244Z,100487.59
2022-10-17T13:01:53.101Z,100490.63
2022-10-17T13:02:24.519Z,100491.44
2022-10-17T13:02:55.881Z,100491.44
2022-10-17T13:03:27.284Z,100492.56
2022-10-17T13:03:58.706Z,100491.16
2022-10-17T13:04:30.093Z,100491.44
2022-10-17T13:05:01.554Z,100488.41
2022-10-17T13:05:33.003Z,100481.31
2022-10-17T13:06:04.434Z,100492.25
2022-10-17T13:06:35.969Z,100488.41
2022-10-17T13:07:07.379Z,100488.13
2022-10-17T13:07:38.821Z,100486.19
2022-10-17T13:08:10.227Z,100486.50
2022-10-17T13:08:41.610Z,100487.59
2022-10-17T13:09:13.042Z,100486.78
2022-10-17T13:09:44.438Z,100482.94
2022-10-17T13:10:15.937Z,100489.75
2022-10-17T13:10:49.111Z,100484.28
2022-10-17T13:11:23.067Z,100481.00
2022-10-17T13:11:54.483Z,100483.75
2022-10-17T13:12:26.264Z,100482.94
2022-10-17T13:12:57.900Z,100491.97
2022-10-17T13:13:29.277Z,100493.38
2022-10-17T13:14:00.676Z,100490.34
2022-10-17T13:14:32.206Z,100491.16
2022-10-17T13:15:03.628Z,100491.66
2022-10-17T13:15:35.052Z,100489.53
2022-10-17T13:16:06.570Z,100493.88
2022-10-17T13:16:38.176Z,100490.34
2022-10-17T13:17:09.577Z,100497.72
2022-10-17T13:17:43.795Z,100496.34
2022-10-17T13:18:15.358Z,100494.19
2022-10-17T13:18:46.765Z,100501.81
2022-10-17T13:19:18.207Z,100497.44
2022-10-17T13:19:49.615Z,100497.44
2022-10-17T13:20:27.503Z,100505.66
2022-10-17T13:21:01.958Z,100498.25
2022-10-17T13:21:33.413Z,100505.38
2022-10-17T13:22:07.036Z,100505.94
2022-10-17T13:22:38.807Z,100504.84
2022-10-17T13:23:10.222Z,100499.88
2022-10-17T13:23:41.698Z,100504.53
2022-10-17T13:24:13.141Z,100502.31
2022-10-17T13:24:44.650Z,100500.69
2022-10-17T13:25:16.070Z,100508.91
2022-10-17T13:25:47.593Z,100506.19
2022-10-17T13:26:19.003Z,100504.53
2022-10-17T13:26:50.424Z,100510.84
2022-10-17T13:27:21.831Z,100501.28
2022-10-17T13:27:53.230Z,100502.41
2022-10-17T13:28:24.666Z,100506.25
2022-10-17T13:28:56.259Z,100509.22
2022-10-17T13:29:27.775Z,100507.28
2022-10-17T13:29:59.254Z,100509.50
2022-10-17T13:30:32.179Z,100512.75
2022-10-17T13:31:04.016Z,100508.91
2022-10-17T13:31:35.414Z,100512.47
2022-10-17T13:32:06.826Z,100507.81
2022-10-17T13:32:38.250Z,100519.03
2022-10-17T13:33:09.648Z,100511.66
2022-10-17T13:33:41.119Z,100514.97
2022-10-17T13:34:12.581Z,100525.03
2022-10-17T13:34:44.032Z,100520.97
2022-10-17T13:35:15.456Z,100520.97
2022-10-17T13:36:02.060Z,100518.22
2022-10-17T13:36:33.622Z,100517.72
2022-10-17T13:37:05.175Z,100524.28
2022-10-17T13:37:36.540Z,100522.09
2022-10-17T13:38:08.053Z,100520.16
2022-10-17T13:38:41.849Z,100520.97
2022-10-17T13:39:16.992Z,100519.34
2022-10-17T13:40:00.096Z,100520.97
2022-10-17T13:40:49.546Z,100521.25
2022-10-17T13:41:35.297Z,100517.72
2022-10-17T13:42:07.582Z,100524.00
2022-10-17T13:42:38.988Z,100528.38
2022-10-17T13:43:10.489Z,100529.47
2022-10-17T13:43:41.920Z,100541.75
2022-10-17T13:44:13.343Z,100534.66
2022-10-17T13:44:44.737Z,100533.03
2022-10-17T13:45:16.107Z,100538.78
2022-10-17T13:45:47.535Z,100543.97
2022-10-17T13:46:36.047Z,100544.78
2022-10-17T13:47:08.091Z,100546.44
2022-10-17T13:47:39.658Z,100542.88
2022-10-17T13:48:11.191Z,100549.97
2022-10-17T13:48:42.805Z,100544.50
2022-10-17T13:49:14.275Z,100546.94
2022-10-17T13:49:45.712Z,100545.63
2022-10-17T13:50:39.425Z,100546.72
2022-10-17T13:51:11.099Z,100542.88
2022-10-17T13:51:42.744Z,100544.50
2022-10-17T13:52:14.183Z,100544.50
2022-10-17T13:52:45.645Z,100556.28
2022-10-17T13:53:17.099Z,100543.69
2022-10-17T13:53:48.471Z,100548.88
2022-10-17T13:54:19.972Z,100545.09
2022-10-17T13:54:51.413Z,100549.75
2022-10-17T13:55:22.843Z,100545.09
2022-10-17T13:56:09.393Z,100542.34
2022-10-17T13:56:46.001Z,100545.31
2022-10-17T13:57:17.418Z,100552.72
2022-10-17T13:57:48.871Z,100545.63
2022-10-17T13:58:20.253Z,100545.09
2022-10-17T13:58:51.698Z,100549.47
2022-10-17T13:59:23.130Z,100552.19
2022-10-17T13:59:54.553Z,100551.38
2022-10-17T14:00:26.044Z,100556.84
2022-10-17T14:00:57.535Z,100552.19
2022-10-17T14:01:28.988Z,100551.91
2022-10-17T14:02:00.492Z,100547.81
2022-10-17T14:02:31.907Z,100558.19
2022-10-17T14:03:03.493Z,100553.25
2022-10-17T14:03:47.515Z,100560.94
2022-10-17T14:04:20.575Z,100557.38
2022-10-17T14:05:15.700Z,100564.78
2022-10-17T14:05:43.667Z,100567.22
2022-10-17T14:06:15.098Z,100565.31
2022-10-17T14:06:49.798Z,100562.56
2022-10-17T14:07:22.881Z,100560.94
2022-10-17T14:08:45.743Z,100560.94
2022-10-17T14:09:17.200Z,100560.94
2022-10-17T14:09:48.618Z,100560.13
2022-10-17T14:10:20.038Z,100566.41
2022-10-17T14:10:51.450Z,100560.13
2022-10-17T14:11:22.885Z,100566.69
2022-10-17T14:11:54.321Z,100569.16
2022-10-17T14:12:25.779Z,100571.94
2022-10-17T14:12:57.218Z,100574.09
2022-10-17T14:13:28.687Z,100567.00
2022-10-17T14:14:00.185Z,100575.19
2022-10-17T14:14:46.185Z,100575.72
2022-10-17T14:15:23.072Z,100571.94
2022-10-17T14:15:54.518Z,100573.00
2022-10-17T14:16:25.930Z,100569.44
2022-10-17T14:16:57.366Z,100570.84
2022-10-17T14:17:29.088Z,100571.38
2022-10-17T14:18:04.240Z,100569.19
2022-10-17T14:18:38.201Z,100576.31
2022-10-17T14:19:09.697Z,100573.00
2022-10-17T14:19:41.100Z,100574.09
2022-10-17T14:20:40.847Z,100577.34
2022-10-17T14:21:55.293Z,100574.63
2022-10-17T14:22:26.724Z,100576.53
2022-10-17T14:23:21.869Z,100582.84
2022-10-17T14:23:49.547Z,100581.19
2022-10-17T14:24:21.121Z,100577.34
2022-10-17T14:24:52.607Z,100577.06
2022-10-17T14:25:24.015Z,100580.09
2022-10-17T14:25:58.032Z,100578.19
2022-10-17T14:26:29.422Z,100576.53
2022-10-17T14:27:00.801Z,100571.88
2022-10-17T14:27:32.450Z,100571.06
2022-10-17T14:28:04.263Z,100576.53
2022-10-17T14:28:35.856Z,100576.31
2022-10-17T14:29:07.428Z,100569.97
2022-10-17T14:29:39.008Z,100580.09
2022-10-17T14:30:10.394Z,100577.34
2022-10-17T14:30:56.379Z,100581.19
2022-10-17T14:31:28.403Z,100579.00
2022-10-17T14:31:59.812Z,100580.09
2022-10-17T14:32:31.588Z,100568.56
2022-10-17T14:33:03.003Z,100575.97
2022-10-17T14:33:35.459Z,100576.53
2022-10-17T14:34:08.725Z,100579.00
2022-10-17T14:34:40.157Z,100581.72
2022-10-17T14:35:30.693Z,100576.53
2022-10-17T14:36:02.965Z,100581.72
2022-10-17T14:36:34.393Z,100587.78
2022-10-17T14:37:05.791Z,100579.28
2022-10-17T14:37:37.227Z,100583.94
2022-10-17T14:38:08.687Z,100583.94
2022-10-17T14:38:40.129Z,100577.66
2022-10-17T14:39:14.422Z,100588.31
2022-10-17T14:39:46.011Z,100582.84
2022-10-17T14:40:17.405Z,100585.56
2022-10-17T14:40:48.843Z,100574.31
2022-10-17T14:42:11.818Z,100577.34
2022-10-17T14:42:43.279Z,100587.19
2022-10-17T14:43:14.727Z,100585.88
2022-10-17T14:43:46.148Z,100579.56
2022-10-17T14:44:17.564Z,100580.09
2022-10-17T14:44:49.068Z,100588.31
2022-10-17T14:45:23.618Z,100576.53
2022-10-17T14:45:55.215Z,100580.91
2022-10-17T14:46:26.593Z,100574.31
2022-10-17T14:46:58.042Z,100579.00
2022-10-17T14:47:44.798Z,100574.63
2022-10-17T14:48:16.341Z,100576.25
2022-10-17T14:48:47.724Z,100576.25
2022-10-17T14:49:24.008Z,100579.00
2022-10-17T14:49:55.990Z,100568.34
2022-10-17T14:50:27.427Z,100579.00
2022-10-17T14:50:58.899Z,100577.34
2022-10-17T14:51:39.955Z,100577.34
2022-10-17T14:52:21.727Z,100580.38
2022-10-17T14:52:53.269Z,100582.00
2022-10-17T14:53:24.693Z,100589.13
2022-10-17T14:53:56.097Z,100578.19
2022-10-17T14:54:27.499Z,100580.09
2022-10-17T14:54:58.965Z,100581.19
2022-10-17T14:55:30.393Z,100583.94
2022-10-17T14:56:01.817Z,100591.56
2022-10-17T14:56:33.254Z,100589.94
2022-10-17T14:57:04.717Z,100588.31
2022-10-17T14:57:36.172Z,100592.69
2022-10-17T14:58:07.655Z,100589.94
2022-10-17T14:58:39.057Z,100590.22
2022-10-17T14:59:13.807Z,100591.63
2022-10-17T14:59:54.830Z,100594.06
2022-10-17T15:00:27.033Z,100588.31
2022-10-17T15:00:58.477Z,100592.16
2022-10-17T15:01:29.909Z,100593.78
2022-10-17T15:02:01.316Z,100595.41
2022-10-17T15:02:33.007Z,100588.31
2022-10-17T15:03:04.707Z,100592.69
2022-10-17T15:03:36.224Z,100601.72
2022-10-17T15:04:07.659Z,100606.38
2022-10-17T15:04:39.030Z,100595.72
2022-10-17T15:05:13.285Z,100602.00
2022-10-17T15:05:45.109Z,100594.38
2022-10-17T15:06:16.609Z,100610.22
2022-10-17T15:06:48.051Z,100601.47
2022-10-17T15:07:19.474Z,100595.19
2022-10-17T15:07:50.936Z,100597.34
2022-10-17T15:08:22.351Z,100596.53
2022-10-17T15:08:53.742Z,100600.06
2022-10-17T15:09:25.246Z,100604.16
2022-10-17T15:09:56.732Z,100604.72
2022-10-17T15:10:28.222Z,100604.72
2022-10-17T15:10:59.654Z,100596.53
2022-10-17T15:11:31.019Z,100609.09
2022-10-17T15:12:02.535Z,100614.59
2022-10-17T15:12:34.000Z,100605.56
2022-10-17T15:13:56.816Z,100609.91
2022-10-17T15:14:28.460Z,100633.75
2022-10-17T15:14:59.869Z,100620.88
2022-10-17T15:15:31.273Z,100622.78
2022-10-17T15:16:02.775Z,100618.44
2022-10-17T15:16:34.258Z,100629.38
2022-10-17T15:17:05.830Z,100629.38
2022-10-17T15:17:37.243Z,100625.81
2022-10-17T15:18:08.770Z,100631.53
2022-10-17T15:18:40.182Z,100627.47
2022-10-17T15:19:11.624Z,100632.34
2022-10-17T15:19:43.060Z,100629.09
2022-10-17T15:20:14.491Z,100631.53
2022-10-17T15:20:45.840Z,100642.50
2022-10-17T15:21:26.224Z,100638.94
2022-10-17T15:22:05.256Z,100637.06
2022-10-17T15:22:36.701Z,100634.03
2022-10-17T15:23:08.080Z,100636.78
2022-10-17T15:23:39.499Z,100632.94
2022-10-17T15:24:10.915Z,100638.41
2022-10-17T15:24:42.474Z,100639.22
2022-10-17T15:25:13.944Z,100639.50
2022-10-17T15:25:45.343Z,100643.88
2022-10-17T15:26:16.889Z,100640.84
2022-10-17T15:26:48.414Z,100643.59
2022-10-17T15:27:19.895Z,100646.38
2022-10-17T15:27:51.450Z,100650.47
2022-10-17T15:28:22.883Z,100650.75
2022-10-17T15:28:54.444Z,100645.00
2022-10-17T15:29:25.884Z,100641.16
2022-10-17T15:29:57.308Z,100645.28
2022-10-17T15:30:28.765Z,100652.09
2022-10-17T15:31:00.208Z,100654.84
2022-10-17T15:31:31.640Z,100651.28
2022-10-17T15:32:03.116Z,100650.19
2022-10-17T15:32:34.650Z,100652.91
2022-10-17T15:33:06.058Z,100653.19
2022-10-17T15:33:37.434Z,100649.34
2022-10-17T15:34:08.849Z,100657.88
2022-10-17T15:34:40.269Z,100647.44
2022-10-17T15:35:11.707Z,100651.28
2022-10-17T15:35:43.686Z,100652.09
2022-10-17T15:36:15.057Z,100651.00
2022-10-17T15:36:46.545Z,100658.38
2022-10-17T15:37:17.947Z,100653.44
2022-10-17T15:37:49.371Z,100659.44
2022-10-17T15:38:20.842Z,100655.88
2022-10-17T15:38:52.274Z,100652.63
2022-10-17T15:39:23.725Z,100653.44
2022-10-17T15:39:55.245Z,100651.00
2022-10-17T15:40:26.676Z,100653.19
2022-10-17T15:40:58.118Z,100652.91
2022-10-17T15:41:29.507Z,100653.72
2022-10-17T15:42:01.073Z,100652.91
2022-10-17T15:42:32.483Z,100656.19
2022-10-17T15:43:03.898Z,100658.91
2022-10-17T15:43:35.341Z,100656.19
2022-10-17T15:44:06.766Z,100650.69
2022-10-17T15:44:38.234Z,100653.44
2022-10-17T15:45:09.645Z,100661.13
2022-10-17T15:45:41.108Z,100655.38
2022-10-17T15:46:12.676Z,100659.19
2022-10-17T15:46:44.059Z,100663.88
2022-10-17T15:47:15.613Z,100659.19
2022-10-17T15:47:47.020Z,100656.19
2022-10-17T15:48:18.751Z,100660.84
2022-10-17T15:48:50.253Z,100662.47
2022-10-17T15:49:21.635Z,100660.84
2022-10-17T15:49:53.071Z,100664.41
2022-10-17T15:50:24.483Z,100667.13
2022-10-17T15:50:55.942Z,100656.47
2022-10-17T15:51:27.379Z,100650.19
2022-10-17T15:51:58.823Z,100649.34
2022-10-17T15:52:30.287Z,100654.84
2022-10-17T15:53:01.729Z,100652.91
2022-10-17T15:53:33.168Z,100655.66
2022-10-17T15:54:04.627Z,100657.00
2022-10-17T15:54:36.069Z,100663.03
2022-10-17T15:55:07.565Z,100658.38
2022-10-17T15:55:38.983Z,100660.03
2022-10-17T15:56:10.359Z,100656.47
2022-10-17T15:56:41.795Z,100651.28
2022-10-17T15:57:13.234Z,100661.41
2022-10-17T15:57:44.698Z,100663.88
2022-10-17T15:58:16.150Z,100674.81
2022-10-17T15:58:47.615Z,100666.59
2022-10-17T15:59:19.114Z,100663.03
2022-10-17T15:59:50.532Z,100660.84
2022-10-17T16:00:22.097Z,100659.19
2022-10-17T16:00:53.546Z,100667.72
2022-10-17T16:01:25.078Z,100668.22
2022-10-17T16:01:56.562Z,100666.59
2022-10-17T16:02:28.000Z,100667.13
2022-10-17T16:02:59.459Z,100663.88
2022-10-17T16:03:30.889Z,100669.88
2022-10-17T16:04:02.482Z,100672.06
2022-10-17T16:04:33.943Z,100674.25
2022-10-17T16:05:05.367Z,100673.44
2022-10-17T16:05:36.830Z,100669.88
2022-10-17T16:06:10.797Z,100680.81
2022-10-17T16:06:44.938Z,100670.97
2022-10-17T16:07:16.410Z,100670.16
2022-10-17T16:07:47.835Z,100682.44
2022-10-17T16:08:19.540Z,100682.44
2022-10-17T16:08:50.991Z,100681.09
2022-10-17T16:09:22.443Z,100682.75
2022-10-17T16:09:53.834Z,100677.56
2022-10-17T16:10:25.277Z,100678.38
2022-10-17T16:10:56.779Z,100681.94
2022-10-17T16:11:28.226Z,100687.13
2022-10-17T16:11:59.686Z,100678.91
2022-10-17T16:12:31.173Z,100680.00
2022-10-17T16:13:02.629Z,100684.09
2022-10-17T16:13:34.130Z,100687.13
2022-10-17T16:14:05.495Z,100686.28
2022-10-17T16:14:36.921Z,100684.38
2022-10-17T16:15:08.872Z,100687.13
2022-10-17T16:15:40.300Z,100680.53
2022-10-17T16:16:11.699Z,100676.44
2022-10-17T16:16:43.122Z,100687.94
2022-10-17T16:17:14.563Z,100693.41
2022-10-17T16:17:45.987Z,100686.00
2022-10-17T16:18:17.430Z,100690.66
2022-10-17T16:18:48.862Z,100691.78
2022-10-17T16:19:20.258Z,100698.88
2022-10-17T16:19:51.640Z,100695.31
2022-10-17T16:20:23.101Z,100698.06
2022-10-17T16:20:54.538Z,100693.41
2022-10-17T16:21:26.097Z,100702.44
2022-10-17T16:21:59.562Z,100701.34
2022-10-17T16:22:33.798Z,100695.84
2022-10-17T16:23:05.303Z,100696.97
2022-10-17T16:23:36.870Z,100701.63
2022-10-17T16:24:08.327Z,100709.84
2022-10-17T16:24:39.735Z,100704.34
2022-10-17T16:25:11.196Z,100707.91
2022-10-17T16:25:42.611Z,100709.84
2022-10-17T16:26:14.100Z,100709.84
2022-10-17T16:26:45.678Z,100710.66
2022-10-17T16:27:17.091Z,100718.06
2022-10-17T16:27:48.566Z,100714.22
2022-10-17T16:28:19.990Z,100714.22
2022-10-17T16:28:51.528Z,100722.41
2022-10-17T16:29:23.011Z,100718.06
2022-10-17T16:29:54.382Z,100722.41
2022-10-17T16:30:25.822Z,100723.53
2022-10-17T16:30:57.243Z,100725.44
2022-10-17T16:31:28.649Z,100730.63
2022-10-17T16:32:00.143Z,100732.56
2022-10-17T16:32:31.770Z,100729.00
2022-10-17T16:33:03.574Z,100731.22
2022-10-17T16:33:34.982Z,100734.47
2022-10-17T16:34:06.484Z,100734.47
2022-10-17T16:34:37.858Z,100741.88
2022-10-17T16:35:09.424Z,100741.06
2022-10-17T16:35:40.864Z,100747.06
2022-10-17T16:36:12.349Z,100738.31
2022-10-17T16:36:43.767Z,100739.94
2022-10-17T16:37:15.208Z,100742.41
2022-10-17T16:37:46.630Z,100742.69
2022-10-17T16:38:18.109Z,100748.69
2022-10-17T16:38:49.510Z,100738.84
2022-10-17T16:39:21.012Z,100746.25
2022-10-17T16:39:52.644Z,100741.06
2022-10-17T16:40:24.187Z,100748.97
2022-10-17T16:40:55.619Z,100744.31
2022-10-17T16:41:27.118Z,100751.72
2022-10-17T16:41:58.772Z,100747.88
2022-10-17T16:42:30.524Z,100739.66
2022-10-17T16:43:02.634Z,100748.69
2022-10-17T16:43:34.050Z,100744.31
2022-10-17T16:44:05.544Z,100748.69
2022-10-17T16:44:37.044Z,100747.06
2022-10-17T16:45:08.442Z,100743.50
2022-10-17T16:45:39.871Z,100750.91
2022-10-17T16:46:11.312Z,100748.16
2022-10-17T16:46:42.721Z,100758.00
2022-10-17T16:47:14.123Z,100749.81
2022-10-17T16:47:45.601Z,100762.38
2022-10-17T16:48:17.038Z,100754.19
2022-10-17T16:48:48.471Z,100754.47
2022-10-17T16:49:19.871Z,100756.09
2022-10-17T16:49:51.356Z,100760.75
2022-10-17T16:50:22.819Z,100755.56
2022-10-17T16:50:54.236Z,100756.09
2022-10-17T16:51:25.723Z,100758.00
2022-10-17T16:51:57.172Z,100762.69
2022-10-17T16:52:28.923Z,100760.75
2022-10-17T16:53:00.658Z,100767.03
2022-10-17T16:53:32.156Z,100764.31
2022-10-17T16:54:03.571Z,100765.13
2022-10-17T16:54:35.055Z,100761.84
2022-10-17T16:55:06.566Z,100765.97
2022-10-17T16:55:38.006Z,100768.97
2022-10-17T16:56:09.505Z,100764.31
2022-10-17T16:56:41.092Z,100765.41
2022-10-17T16:57:12.577Z,100765.41
2022-10-17T16:58:16.444Z,100772.53
2022-10-17T16:58:47.847Z,100765.41
2022-10-17T16:59:19.255Z,100766.22
2022-10-17T16:59:50.647Z,100766.22
2022-10-17T17:00:22.274Z,100764.59
2022-10-17T17:00:53.770Z,100765.41
2022-10-17T17:01:25.283Z,100764.59
2022-10-17T17:01:56.704Z,100766.22
2022-10-17T17:02:28.155Z,100768.69
2022-10-17T17:02:59.634Z,100770.59
2022-10-17T17:03:31.102Z,100773.91
2022-10-17T17:04:02.572Z,100772.00
2022-10-17T17:04:33.975Z,100771.19
2022-10-17T17:05:05.502Z,100771.47
2022-10-17T17:05:36.930Z,100768.44
2022-10-17T17:06:08.371Z,100769.25
2022-10-17T17:06:39.822Z,100770.06
2022-10-17T17:07:11.303Z,100765.41
2022-10-17T17:07:42.690Z,100764.06
2022-10-17T17:08:14.114Z,100768.44
2022-10-17T17:08:45.540Z,100770.88
2022-10-17T17:09:16.957Z,100774.72
2022-10-17T17:09:48.415Z,100774.72
2022-10-17T17:10:19.869Z,100781.03
2022-10-17T17:10:51.344Z,100764.59
2022-10-17T17:11:22.798Z,100777.47
2022-10-17T17:11:54.231Z,100773.63
2022-10-17T17:12:25.660Z,100781.03
2022-10-17T17:12:57.086Z,100773.91
2022-10-17T17:13:28.537Z,100772.28
2022-10-17T17:14:00.021Z,100777.75
2022-10-17T17:14:31.410Z,100777.75
2022-10-17T17:15:02.848Z,100782.13
2022-10-17T17:15:34.328Z,100773.38
2022-10-17T17:16:05.778Z,100774.19
2022-10-17T17:16:37.309Z,100778.56
2022-10-17T17:17:15.378Z,100781.31
2022-10-17T17:17:56.619Z,100776.94
2022-10-17T17:18:28.587Z,100773.91
2022-10-17T17:19:00.173Z,100771.19
2022-10-17T17:19:31.951Z,100768.44
2022-10-17T17:20:03.461Z,100772.00
2022-10-17T17:20:34.915Z,100770.88
2022-10-17T17:21:06.371Z,100769.25
2022-10-17T17:21:37.810Z,100765.69
2022-10-17T17:22:09.294Z,100765.41
2022-10-17T17:22:40.719Z,100766.22
2022-10-17T17:23:15.694Z,100768.97
2022-10-17T17:23:47.391Z,100762.69
2022-10-17T17:24:18.951Z,100766.22
2022-10-17T17:24:50.652Z,100767.03
2022-10-17T17:25:22.128Z,100768.97
2022-10-17T17:25:53.624Z,100760.75
2022-10-17T17:26:25.058Z,100761.56
2022-10-17T17:26:56.471Z,100760.75
2022-10-17T17:27:28.363Z,100758.00
2022-10-17T17:27:59.943Z,100756.38
2022-10-17T17:28:31.424Z,100748.97
2022-10-17T17:29:02.929Z,100746.25
2022-10-17T17:29:34.362Z,100748.97
2022-10-17T17:30:05.834Z,100747.88
2022-10-17T17:30:37.225Z,100741.59
2022-10-17T17:31:08.667Z,100745.44
2022-10-17T17:31:40.085Z,100748.69
2022-10-17T17:32:11.568Z,100748.97
2022-10-17T17:32:43.096Z,100752.53
2022-10-17T17:33:14.542Z,100748.69
2022-10-17T17:33:46.099Z,100754.47
2022-10-17T17:34:18.361Z,100755.28
2022-10-17T17:34:50.078Z,100757.72
2022-10-17T17:35:21.535Z,100765.13
2022-10-17T17:35:53.203Z,100765.94
2022-10-17T17:36:24.640Z,100763.25
2022-10-17T17:36:56.046Z,100762.19
2022-10-17T17:37:27.627Z,100758.06
2022-10-17T17:37:59.290Z,100763.53
2022-10-17T17:38:30.704Z,100763.53
2022-10-17T17:39:02.162Z,100761.31
2022-10-17T17:39:33.635Z,100764.59
2022-10-17T17:40:05.066Z,100765.41
2022-10-17T17:40:36.493Z,100763.50
2022-10-17T17:41:07.921Z,100769.78
2022-10-17T17:41:39.338Z,100766.22
2022-10-17T17:42:10.780Z,100774.72
2022-10-17T17:42:42.246Z,100778.53
2022-10-17T17:43:13.789Z,100776.59
2022-10-17T17:43:45.326Z,100767.88
2022-10-17T17:44:17.238Z,100774.69
2022-10-17T17:44:48.788Z,100778.53
2022-10-17T17:45:20.175Z,100776.59
2022-10-17T17:45:51.655Z,100778.00
2022-10-17T17:46:23.051Z,100777.19
2022-10-17T17:46:54.589Z,100778.00
2022-10-17T17:47:26.011Z,100775.25
2022-10-17T17:47:57.434Z,100779.63
2022-10-17T17:48:28.945Z,100775.53
2022-10-17T17:49:00.377Z,100777.19
2022-10-17T17:49:31.864Z,100781.84
2022-10-17T17:50:03.258Z,100775.53
2022-10-17T17:50:34.632Z,100782.66
2022-10-17T17:51:06.049Z,100781.84
2022-10-17T17:51:37.496Z,100786.50
2022-10-17T17:52:08.954Z,100788.94
2022-10-17T17:52:40.377Z,100792.50
2022-10-17T17:53:11.788Z,100785.41
2022-10-17T17:53:43.227Z,100787.31
2022-10-17T17:54:14.681Z,100789.78
2022-10-17T17:54:46.074Z,100790.59
2022-10-17T17:55:17.599Z,100789.78
2022-10-17T17:55:49.136Z,100784.28
2022-10-17T17:56:20.559Z,100781.56
2022-10-17T17:56:51.983Z,100786.22
2022-10-17T17:57:23.406Z,100772.53
2022-10-17T17:57:54.805Z,100778.00
2022-10-17T17:58:26.240Z,100776.06
2022-10-17T17:58:57.722Z,100777.72
2022-10-17T17:59:29.127Z,100776.06
2022-10-17T18:00:00.534Z,100773.34
2022-10-17T18:00:31.965Z,100778.00
2022-10-17T18:01:39.839Z,100781.84
2022-10-17T18:02:11.415Z,100775.53
2022-10-17T18:02:44.439Z,100778.00
2022-10-17T18:03:16.006Z,100785.94
2022-10-17T18:03:47.501Z,100791.69
2022-10-17T18:04:18.903Z,100786.22
2022-10-17T18:04:50.347Z,100785.97
2022-10-17T18:05:21.776Z,100790.06
2022-10-17T18:05:53.174Z,100781.03
2022-10-17T18:06:24.586Z,100784.28
2022-10-17T18:06:56.017Z,100787.84
2022-10-17T18:07:27.507Z,100790.88
2022-10-17T18:07:58.889Z,100785.69
2022-10-17T18:08:30.271Z,100790.06
2022-10-17T18:09:01.769Z,100796.34
2022-10-17T18:09:33.248Z,100794.44
2022-10-17T18:10:04.783Z,100801.81
2022-10-17T18:10:36.269Z,100801.00
2022-10-17T18:11:07.797Z,100795.25
2022-10-17T18:11:39.243Z,100798.56
2022-10-17T18:12:10.623Z,100796.34
2022-10-17T18:12:42.136Z,100799.91
2022-10-17T18:13:13.542Z,100803.47
2022-10-17T18:13:45.029Z,100796.63
2022-10-17T18:14:16.556Z,100806.47
2022-10-17T18:14:48.058Z,100801.00
2022-10-17T18:15:19.462Z,100800.19
2022-10-17T18:15:50.901Z,100797.16
2022-10-17T18:16:22.405Z,100802.94
2022-10-17T18:16:53.989Z,100799.09
2022-10-17T18:17:25.453Z,100800.72
2022-10-17T18:17:56.819Z,100797.44
2022-10-17T18:18:28.215Z,100796.34
2022-10-17T18:19:04.040Z,100801.00
2022-10-17T18:19:38.301Z,100801.81
2022-10-17T18:20:09.699Z,100798.00
2022-10-17T18:20:41.085Z,100795.25
2022-10-17T18:21:12.588Z,100801.00